Time;durP1;ratioP1;P1;durP2;ratioP2;P2;SDS_P1;SDS_P2;PMS_P1;PMS_P2;Temp;Humidity;BMP_temperature;BMP_pressure;BME280_temperature;BME280_humidity;BME280_pressure;Samples;Min_cycle;Max_cycle;Signal;HPM_P1;HPM_P2
2023/12/11 00:00:39;;;;;;;14.57;14.07;;;12.50;99.90;;;;;;5063536;28;20235;-63
2023/12/11 00:03:10;;;;;;;14.73;14.23;;;12.50;99.90;;;;;;5058932;28;20298;-64
2023/12/11 00:05:39;;;;;;;15.73;15.20;;;12.60;99.90;;;;;;5066698;28;20712;-63
2023/12/11 00:08:06;;;;;;;16.07;15.57;;;12.60;99.90;;;;;;5068219;28;20219;-64
2023/12/11 00:10:34;;;;;;;15.10;14.60;;;12.60;99.90;;;;;;5065179;28;20207;-64
2023/12/11 00:13:01;;;;;;;14.53;14.03;;;12.60;99.90;;;;;;5068531;28;20580;-64
2023/12/11 00:15:28;;;;;;;14.47;13.97;;;12.50;99.90;;;;;;5064192;28;20213;-64
2023/12/11 00:17:55;;;;;;;16.13;15.63;;;12.50;99.90;;;;;;5057015;28;20291;-64
2023/12/11 00:20:21;;;;;;;15.57;15.07;;;12.30;99.90;;;;;;5062944;28;20204;-63
2023/12/11 00:22:48;;;;;;;16.93;16.33;;;12.30;99.90;;;;;;5066359;28;20319;-63
2023/12/11 00:25:15;;;;;;;16.63;16.03;;;12.20;99.90;;;;;;5071459;28;20203;-63
2023/12/11 00:27:43;;;;;;;15.60;15.10;;;12.20;99.90;;;;;;5071047;28;20601;-63
2023/12/11 00:30:11;;;;;;;15.43;14.93;;;12.20;99.90;;;;;;5071052;28;20257;-64
2023/12/11 00:32:38;;;;;;;15.20;14.70;;;12.10;99.90;;;;;;5071623;28;20203;-64
2023/12/11 00:35:06;;;;;;;15.33;14.83;;;12.10;99.90;;;;;;5070943;28;20700;-64
2023/12/11 00:37:33;;;;;;;14.93;14.43;;;12.10;99.90;;;;;;5070813;28;20229;-64
2023/12/11 00:39:59;;;;;;;14.50;14.00;;;12.00;99.90;;;;;;5067764;28;20251;-64
2023/12/11 00:42:26;;;;;;;15.17;14.67;;;12.10;99.90;;;;;;5062850;28;20203;-63
2023/12/11 00:44:54;;;;;;;15.47;14.97;;;12.10;99.90;;;;;;5060534;28;20195;-63
2023/12/11 00:47:21;;;;;;;17.10;16.50;;;12.10;99.90;;;;;;5058757;28;20305;-64
2023/12/11 00:49:48;;;;;;;18.60;18.00;;;12.10;99.90;;;;;;5062059;28;20199;-63
2023/12/11 00:52:15;;;;;;;17.00;16.40;;;12.10;99.90;;;;;;5068746;28;20219;-66
2023/12/11 00:54:42;;;;;;;18.03;17.43;;;12.10;99.90;;;;;;5079694;28;20231;-64
2023/12/11 00:57:09;;;;;;;17.47;16.87;;;12.00;99.90;;;;;;5080131;28;20244;-63
2023/12/11 00:59:36;;;;;;;16.53;15.97;;;12.00;99.90;;;;;;5072069;28;20279;-64
2023/12/11 01:02:04;;;;;;;16.63;16.07;;;12.00;99.90;;;;;;5069764;28;20204;-64
2023/12/11 01:04:31;;;;;;;13.47;13.00;;;12.10;99.90;;;;;;5071421;28;20314;-63
2023/12/11 01:06:58;;;;;;;14.53;14.03;;;12.10;99.90;;;;;;5066843;28;20277;-64
2023/12/11 01:09:24;;;;;;;15.90;15.40;;;12.10;99.90;;;;;;5069131;28;20227;-64
2023/12/11 01:11:51;;;;;;;15.03;14.53;;;12.10;99.90;;;;;;5069730;28;20217;-64
2023/12/11 01:14:18;;;;;;;15.97;15.43;;;12.10;99.90;;;;;;5068892;28;20195;-64
2023/12/11 01:16:45;;;;;;;14.83;14.33;;;12.10;99.90;;;;;;5073546;28;20230;-63
2023/12/11 01:19:13;;;;;;;15.67;15.17;;;12.20;99.90;;;;;;5074813;28;20713;-63
2023/12/11 01:21:40;;;;;;;14.83;14.33;;;12.10;99.90;;;;;;5074514;28;20668;-63
2023/12/11 01:24:07;;;;;;;15.87;15.37;;;12.10;99.90;;;;;;5072712;28;20215;-63
2023/12/11 01:26:34;;;;;;;16.07;15.53;;;12.10;99.90;;;;;;5066734;28;20220;-64
2023/12/11 01:29:01;;;;;;;16.83;16.27;;;12.10;99.90;;;;;;5067370;28;20226;-63
2023/12/11 01:31:27;;;;;;;17.80;17.20;;;12.20;99.90;;;;;;5059697;28;20200;-64
2023/12/11 01:33:54;;;;;;;18.20;17.60;;;12.10;99.90;;;;;;5065270;28;20195;-64
2023/12/11 01:36:22;;;;;;;15.17;14.67;;;12.20;99.90;;;;;;5066248;28;20215;-64
2023/12/11 01:38:50;;;;;;;14.35;13.85;;;12.20;99.90;;;;;;5062993;28;20582;-63
2023/12/11 01:41:16;;;;;;;18.20;17.57;;;12.30;99.90;;;;;;5063685;28;20231;-63
2023/12/11 01:43:52;;;;;;;16.40;15.83;;;12.30;99.90;;;;;;5067400;28;20280;-64
2023/12/11 01:46:19;;;;;;;19.80;19.13;;;12.30;99.90;;;;;;5067934;28;20219;-63
2023/12/11 01:48:46;;;;;;;16.23;15.70;;;12.30;99.90;;;;;;5063592;28;20284;-64
2023/12/11 01:51:15;;;;;;;16.30;15.77;;;12.30;99.90;;;;;;5062756;28;20225;-63
2023/12/11 01:53:47;;;;;;;15.20;14.70;;;12.20;99.90;;;;;;5070240;28;20203;-63
2023/12/11 01:56:14;;;;;;;14.77;14.27;;;12.30;99.90;;;;;;5062085;28;20306;-63
2023/12/11 01:58:41;;;;;;;18.10;17.50;;;12.30;99.90;;;;;;5064283;28;20202;-63
2023/12/11 02:01:10;;;;;;;18.20;17.53;;;12.40;99.90;;;;;;5069732;28;20230;-63
2023/12/11 02:03:37;;;;;;;15.37;14.87;;;12.20;99.90;;;;;;5064027;28;20582;-63
2023/12/11 02:06:04;;;;;;;15.60;15.10;;;12.20;99.90;;;;;;5067780;28;20221;-64
2023/12/11 02:08:31;;;;;;;12.30;11.90;;;12.20;99.90;;;;;;5068837;28;20203;-64
2023/12/11 02:11:00;;;;;;;12.30;11.90;;;12.20;99.90;;;;;;5069083;28;20286;-64
2023/12/11 02:13:26;;;;;;;12.23;11.83;;;12.30;99.90;;;;;;5070728;28;20643;-64
2023/12/11 02:15:53;;;;;;;12.80;12.40;;;12.30;99.90;;;;;;5070310;28;20206;-64
2023/12/11 02:18:21;;;;;;;13.37;12.93;;;12.30;99.90;;;;;;5066589;28;20211;-64
2023/12/11 02:20:48;;;;;;;13.37;12.97;;;12.40;99.90;;;;;;5070875;28;20207;-64
2023/12/11 02:23:22;;;;;;;12.53;12.13;;;12.30;99.90;;;;;;5072294;28;20306;-64
2023/12/11 02:25:55;;;;;;;12.53;12.13;;;12.40;99.90;;;;;;5073837;28;20226;-63
2023/12/11 02:28:23;;;;;;;12.00;11.60;;;12.50;99.90;;;;;;5070136;28;20196;-64
2023/12/11 02:30:51;;;;;;;12.60;12.20;;;12.50;99.90;;;;;;5075755;28;20722;-63
2023/12/11 02:33:18;;;;;;;12.50;12.10;;;12.50;99.90;;;;;;5076685;28;20203;-63
2023/12/11 02:35:45;;;;;;;12.37;11.97;;;12.60;99.90;;;;;;5070011;28;20223;-64
2023/12/11 02:38:12;;;;;;;12.50;12.10;;;12.60;99.90;;;;;;5068701;28;20227;-64
2023/12/11 02:40:39;;;;;;;13.07;12.67;;;12.60;99.90;;;;;;5068306;28;20204;-64
2023/12/11 02:43:05;;;;;;;12.90;12.50;;;12.60;99.90;;;;;;5072086;28;20219;-64
2023/12/11 02:45:33;;;;;;;12.30;11.90;;;12.70;99.90;;;;;;5068481;28;20204;-63
2023/12/11 02:48:02;;;;;;;12.23;11.83;;;12.80;99.90;;;;;;5072817;28;20590;-63
2023/12/11 02:50:29;;;;;;;12.57;12.17;;;12.80;99.90;;;;;;5065557;28;20211;-63
2023/12/11 02:52:57;;;;;;;13.17;12.77;;;12.70;99.90;;;;;;5065549;28;20215;-63
2023/12/11 02:55:24;;;;;;;13.43;13.00;;;12.70;99.90;;;;;;5067572;28;20636;-63
2023/12/11 02:57:51;;;;;;;13.23;12.83;;;12.70;99.90;;;;;;5067938;28;20302;-63
2023/12/11 03:00:18;;;;;;;13.23;12.83;;;12.70;99.90;;;;;;5070070;28;20286;-65
2023/12/11 03:02:46;;;;;;;13.20;12.80;;;12.60;99.90;;;;;;5068010;28;20204;-64
2023/12/11 03:05:13;;;;;;;13.90;13.40;;;12.60;99.90;;;;;;5068165;28;20219;-65
2023/12/11 03:07:40;;;;;;;13.20;12.80;;;12.60;99.90;;;;;;5068418;28;20227;-63
2023/12/11 03:10:08;;;;;;;12.97;12.57;;;12.70;99.90;;;;;;5069570;28;20207;-65
2023/12/11 03:12:35;;;;;;;13.47;13.00;;;12.70;99.90;;;;;;5067408;28;20204;-64
2023/12/11 03:15:02;;;;;;;14.73;14.23;;;12.70;99.90;;;;;;5068776;28;20284;-63
2023/12/11 03:17:29;;;;;;;14.03;13.53;;;12.80;99.90;;;;;;5069534;28;20219;-62
2023/12/11 03:19:59;;;;;;;14.50;14.00;;;12.70;99.90;;;;;;5066466;28;20200;-62
2023/12/11 03:22:26;;;;;;;14.03;13.53;;;12.70;99.90;;;;;;5066283;28;20230;-64
2023/12/11 03:24:53;;;;;;;13.60;13.20;;;12.70;99.90;;;;;;5070084;28;20215;-64
2023/12/11 03:27:21;;;;;;;13.77;13.27;;;12.70;99.90;;;;;;5068341;28;20229;-63
2023/12/11 03:29:48;;;;;;;12.87;12.47;;;12.70;99.90;;;;;;5067330;28;20196;-64
2023/12/11 03:32:15;;;;;;;13.27;12.87;;;12.70;99.90;;;;;;5069801;28;20203;-64
2023/12/11 03:34:42;;;;;;;11.97;11.57;;;12.60;99.90;;;;;;5068412;28;20200;-64
2023/12/11 03:37:11;;;;;;;13.77;13.27;;;12.60;99.90;;;;;;5069705;28;20233;-64
2023/12/11 03:39:38;;;;;;;12.37;11.97;;;12.60;99.90;;;;;;5066119;28;20196;-63
2023/12/11 03:42:05;;;;;;;12.40;12.00;;;12.60;99.90;;;;;;5072110;28;20222;-64
2023/12/11 03:44:32;;;;;;;14.00;13.50;;;12.60;99.90;;;;;;5072710;28;20607;-64
2023/12/11 03:46:59;;;;;;;13.23;12.83;;;12.60;99.90;;;;;;5068443;28;20223;-63
2023/12/11 03:49:27;;;;;;;13.77;13.27;;;12.60;99.90;;;;;;5067112;28;20203;-64
2023/12/11 03:51:54;;;;;;;14.00;13.50;;;12.60;99.90;;;;;;5067608;28;20231;-63
2023/12/11 03:54:22;;;;;;;12.67;12.27;;;12.60;99.90;;;;;;5066918;28;20741;-64
2023/12/11 03:56:49;;;;;;;13.53;13.13;;;12.60;99.90;;;;;;5067078;28;20219;-64
2023/12/11 03:59:16;;;;;;;13.90;13.40;;;12.60;99.90;;;;;;5069020;28;20202;-65
2023/12/11 04:01:43;;;;;;;16.00;15.50;;;12.60;99.90;;;;;;5064143;28;20222;-64
2023/12/11 04:04:09;;;;;;;13.97;13.47;;;12.60;99.90;;;;;;5067877;28;20242;-65
2023/12/11 04:06:36;;;;;;;14.10;13.60;;;12.70;99.90;;;;;;5069687;28;20318;-64
2023/12/11 04:09:04;;;;;;;14.60;14.10;;;12.70;99.90;;;;;;5073392;28;20564;-63
2023/12/11 04:11:32;;;;;;;13.67;13.17;;;12.80;99.90;;;;;;5067180;28;20210;-64
2023/12/11 04:13:59;;;;;;;14.23;13.73;;;12.80;99.90;;;;;;5063192;28;20287;-64
2023/12/11 04:16:26;;;;;;;13.67;13.20;;;12.80;99.90;;;;;;5061210;28;20219;-65
2023/12/11 04:18:53;;;;;;;14.30;13.80;;;12.80;99.90;;;;;;5068754;28;20199;-63
2023/12/11 04:21:20;;;;;;;14.40;13.90;;;12.80;99.90;;;;;;5068954;28;20202;-63
2023/12/11 04:23:47;;;;;;;14.13;13.63;;;12.80;99.90;;;;;;5065944;28;20230;-65
2023/12/11 04:26:14;;;;;;;13.50;13.10;;;12.80;99.90;;;;;;5067449;28;20199;-64
2023/12/11 04:28:42;;;;;;;14.70;14.20;;;12.80;99.90;;;;;;5065217;28;20200;-64
2023/12/11 04:31:09;;;;;;;14.23;13.73;;;12.70;99.90;;;;;;5066637;28;20209;-64
2023/12/11 04:33:37;;;;;;;14.73;14.23;;;12.70;99.90;;;;;;5065464;28;20692;-64
2023/12/11 04:36:08;;;;;;;14.03;13.53;;;12.70;99.90;;;;;;5067257;28;20230;-63
2023/12/11 04:38:35;;;;;;;14.00;13.50;;;12.60;99.90;;;;;;5065367;28;20203;-64
2023/12/11 04:41:02;;;;;;;14.30;13.80;;;12.60;99.90;;;;;;5067270;28;20290;-64
2023/12/11 04:43:29;;;;;;;14.50;14.00;;;12.60;99.90;;;;;;5065732;28;20272;-64
2023/12/11 04:45:57;;;;;;;13.13;12.73;;;12.70;99.90;;;;;;5068941;28;20621;-63
2023/12/11 04:48:24;;;;;;;14.20;13.70;;;12.70;99.90;;;;;;5068769;28;20207;-63
2023/12/11 04:50:51;;;;;;;14.37;13.87;;;12.70;99.90;;;;;;5067760;28;20199;-63
2023/12/11 04:53:17;;;;;;;15.07;14.57;;;12.70;99.90;;;;;;5068919;28;20214;-65
2023/12/11 04:55:44;;;;;;;14.17;13.67;;;12.70;99.90;;;;;;5070790;28;20202;-62
2023/12/11 04:58:11;;;;;;;14.83;14.33;;;12.70;99.90;;;;;;5070337;28;20310;-63
2023/12/11 05:00:38;;;;;;;14.57;14.07;;;12.60;99.90;;;;;;5067890;28;20577;-64
2023/12/11 05:03:06;;;;;;;13.57;13.07;;;12.60;99.90;;;;;;5068749;28;20226;-63
2023/12/11 05:05:33;;;;;;;13.97;13.47;;;12.70;99.90;;;;;;5065519;28;20230;-63
2023/12/11 05:08:00;;;;;;;14.00;13.50;;;12.80;99.90;;;;;;5067622;28;20219;-65
2023/12/11 05:10:27;;;;;;;14.73;14.23;;;12.80;99.90;;;;;;5066018;28;20206;-64
2023/12/11 05:12:54;;;;;;;15.33;14.83;;;12.80;99.90;;;;;;5067082;28;20688;-65
2023/12/11 05:15:20;;;;;;;13.90;13.40;;;12.70;99.90;;;;;;5067249;28;20221;-64
2023/12/11 05:17:47;;;;;;;13.57;13.07;;;12.70;99.90;;;;;;5066494;28;20234;-63
2023/12/11 05:20:18;;;;;;;15.20;14.70;;;12.70;99.90;;;;;;5070326;28;20199;-62
2023/12/11 05:22:44;;;;;;;15.20;14.70;;;12.70;99.90;;;;;;5065325;28;20212;-63
2023/12/11 05:25:11;;;;;;;14.57;14.07;;;12.60;99.90;;;;;;5067267;28;20211;-64
2023/12/11 05:27:38;;;;;;;14.97;14.47;;;12.60;99.90;;;;;;5066978;28;20223;-63
2023/12/11 05:30:07;;;;;;;13.90;13.40;;;12.50;99.90;;;;;;5068928;28;20211;-64
2023/12/11 05:32:33;;;;;;;13.10;12.70;;;12.40;99.90;;;;;;5065935;28;20207;-64
2023/12/11 05:35:00;;;;;;;14.17;13.67;;;12.20;99.90;;;;;;5068830;28;20238;-63
2023/12/11 05:37:28;;;;;;;13.97;13.47;;;12.10;99.90;;;;;;5068139;28;20227;-64
2023/12/11 05:39:55;;;;;;;13.50;13.07;;;12.10;99.90;;;;;;5068090;28;20619;-64
2023/12/11 05:42:22;;;;;;;12.90;12.50;;;12.00;99.90;;;;;;5067577;28;20207;-63
2023/12/11 05:44:49;;;;;;;13.40;12.90;;;11.90;99.90;;;;;;5070597;28;20244;-64
2023/12/11 05:47:16;;;;;;;12.03;11.63;;;12.00;99.90;;;;;;5076916;28;20698;-66
2023/12/11 05:49:42;;;;;;;12.53;12.13;;;12.10;99.90;;;;;;5078902;28;20625;-63
2023/12/11 05:52:09;;;;;;;12.93;12.53;;;12.00;99.90;;;;;;5072305;28;20221;-63
2023/12/11 05:54:37;;;;;;;12.47;12.07;;;12.00;99.90;;;;;;5069827;28;20210;-63
2023/12/11 05:57:04;;;;;;;12.67;12.27;;;11.90;99.90;;;;;;5073732;28;20585;-67
2023/12/11 05:59:31;;;;;;;12.83;12.43;;;11.90;99.90;;;;;;5072857;28;20290;-70
2023/12/11 06:01:58;;;;;;;12.20;11.80;;;11.80;99.90;;;;;;5071507;28;20207;-66
2023/12/11 06:04:25;;;;;;;12.47;12.07;;;11.90;99.90;;;;;;5075122;28;20227;-67
2023/12/11 06:06:52;;;;;;;13.17;12.77;;;11.90;99.90;;;;;;5075472;28;20220;-68
2023/12/11 06:09:18;;;;;;;12.97;12.53;;;11.90;99.90;;;;;;5070512;28;20199;-66
2023/12/11 06:11:46;;;;;;;14.03;13.53;;;11.90;99.90;;;;;;5072876;28;20199;-66
2023/12/11 06:14:13;;;;;;;14.70;14.20;;;11.80;99.90;;;;;;5071992;28;20849;-65
2023/12/11 06:16:41;;;;;;;15.20;14.70;;;11.80;99.90;;;;;;5071757;28;20242;-67
2023/12/11 06:19:07;;;;;;;15.70;15.20;;;11.70;99.90;;;;;;5071366;28;20261;-66
2023/12/11 06:21:34;;;;;;;15.90;15.40;;;11.60;99.90;;;;;;5073835;28;20654;-66
2023/12/11 06:24:02;;;;;;;15.83;15.33;;;11.50;99.90;;;;;;5072657;28;20199;-65
2023/12/11 06:26:30;;;;;;;15.83;15.33;;;11.50;99.90;;;;;;5076191;28;20691;-65
2023/12/11 06:28:59;;;;;;;15.63;15.07;;;11.40;99.90;;;;;;5076893;28;20207;-66
2023/12/11 06:31:27;;;;;;;15.97;15.47;;;11.50;99.90;;;;;;5074147;28;20207;-67
2023/12/11 06:33:54;;;;;;;16.63;16.03;;;11.40;99.90;;;;;;5075580;28;20200;-66
2023/12/11 06:36:21;;;;;;;16.97;16.37;;;11.40;99.90;;;;;;5076480;28;20222;-65
2023/12/11 06:38:50;;;;;;;17.50;16.90;;;11.50;99.90;;;;;;5074225;28;20317;-67
2023/12/11 06:41:16;;;;;;;16.80;16.20;;;11.50;99.90;;;;;;5077351;28;20286;-67
2023/12/11 06:43:43;;;;;;;17.23;16.63;;;11.40;99.90;;;;;;5071730;28;20204;-66
2023/12/11 06:46:11;;;;;;;16.53;15.97;;;11.40;99.90;;;;;;5074115;28;20712;-66
2023/12/11 06:48:38;;;;;;;16.40;15.80;;;11.40;99.90;;;;;;5078569;28;20210;-66
2023/12/11 06:51:05;;;;;;;16.73;16.03;;;11.40;99.90;;;;;;5077295;28;20200;-66
2023/12/11 06:53:32;;;;;;;17.53;16.90;;;11.40;99.90;;;;;;5083390;28;20207;-67
2023/12/11 06:55:59;;;;;;;17.07;16.47;;;11.40;99.90;;;;;;5072042;28;20337;-66
2023/12/11 06:58:25;;;;;;;17.83;17.23;;;11.30;99.90;;;;;;5074309;28;20275;-65
2023/12/11 07:00:52;;;;;;;16.63;16.03;;;11.30;99.90;;;;;;5076595;28;20207;-67
2023/12/11 07:03:20;;;;;;;16.33;15.80;;;11.30;99.90;;;;;;5073743;28;20203;-67
2023/12/11 07:05:47;;;;;;;15.33;14.83;;;11.30;99.90;;;;;;5073396;28;20219;-65
2023/12/11 07:08:14;;;;;;;16.73;16.13;;;11.20;99.90;;;;;;5073535;28;20243;-66
2023/12/11 07:10:41;;;;;;;16.27;15.73;;;11.20;99.90;;;;;;5073303;28;20199;-66
2023/12/11 07:13:08;;;;;;;16.67;16.07;;;11.20;99.90;;;;;;5073098;28;20607;-67
2023/12/11 07:15:35;;;;;;;17.57;16.97;;;11.20;99.90;;;;;;5072810;28;20208;-67
2023/12/11 07:18:01;;;;;;;16.47;15.87;;;11.10;99.90;;;;;;5073042;28;20261;-67
2023/12/11 07:20:33;;;;;;;16.53;15.93;;;11.20;99.90;;;;;;5071756;28;20207;-67
2023/12/11 07:23:00;;;;;;;19.37;18.67;;;11.20;99.90;;;;;;5068785;28;20207;-66
2023/12/11 07:25:27;;;;;;;17.90;17.30;;;11.20;99.90;;;;;;5074144;28;20229;-67
2023/12/11 07:27:54;;;;;;;17.33;16.73;;;11.20;99.90;;;;;;5072289;28;20229;-66
2023/12/11 07:30:21;;;;;;;17.93;17.33;;;11.20;99.90;;;;;;5073521;28;20203;-67
2023/12/11 07:32:48;;;;;;;16.40;15.80;;;11.10;99.90;;;;;;5072257;28;20207;-65
2023/12/11 07:35:14;;;;;;;15.10;14.60;;;11.10;99.90;;;;;;5072620;28;20191;-67
2023/12/11 07:37:43;;;;;;;15.47;14.90;;;11.10;99.90;;;;;;5072720;28;20601;-65
2023/12/11 07:40:11;;;;;;;16.10;15.50;;;11.10;99.90;;;;;;5073580;28;20278;-65
2023/12/11 07:42:38;;;;;;;17.93;17.33;;;11.10;99.90;;;;;;5076154;28;20207;-65
2023/12/11 07:45:06;;;;;;;16.60;16.00;;;11.10;99.90;;;;;;5077753;28;20215;-68
2023/12/11 07:47:33;;;;;;;17.00;16.40;;;11.10;99.90;;;;;;5079701;28;20223;-69
2023/12/11 07:50:00;;;;;;;17.47;16.87;;;11.00;99.90;;;;;;5076760;28;20211;-66
2023/12/11 07:52:30;;;;;;;16.83;16.23;;;11.00;99.90;;;;;;5077421;28;20760;-65
2023/12/11 07:54:58;;;;;;;17.60;17.00;;;11.10;99.90;;;;;;5078535;28;20196;-66
2023/12/11 07:57:26;;;;;;;14.73;14.23;;;11.10;99.90;;;;;;5078560;28;20790;-66
2023/12/11 07:59:53;;;;;;;15.10;14.50;;;11.10;99.90;;;;;;5080647;28;20297;-65
2023/12/11 08:02:21;;;;;;;13.90;13.40;;;11.10;99.90;;;;;;5075554;28;20243;-67
2023/12/11 08:04:48;;;;;;;13.17;12.77;;;11.30;99.90;;;;;;5075752;28;20206;-66
2023/12/11 08:07:15;;;;;;;14.10;13.60;;;11.40;99.90;;;;;;5077114;28;20219;-67
2023/12/11 08:09:42;;;;;;;12.80;12.40;;;11.50;99.90;;;;;;5074487;28;20290;-66
2023/12/11 08:12:10;;;;;;;12.70;12.30;;;11.50;99.90;;;;;;5074949;28;20203;-66
2023/12/11 08:14:37;;;;;;;12.43;12.03;;;11.70;99.90;;;;;;5073959;28;20218;-64
2023/12/11 08:17:04;;;;;;;12.90;12.50;;;11.90;99.90;;;;;;5071996;28;20223;-66
2023/12/11 08:19:33;;;;;;;13.37;12.93;;;12.00;99.90;;;;;;5079439;28;20199;-70
2023/12/11 08:22:00;;;;;;;14.33;13.83;;;12.10;99.90;;;;;;5075091;28;20948;-65
2023/12/11 08:24:27;;;;;;;13.77;13.27;;;12.00;99.90;;;;;;5072697;28;20638;-65
2023/12/11 08:26:54;;;;;;;14.37;13.87;;;12.00;99.90;;;;;;5079785;28;20662;-65
2023/12/11 08:29:22;;;;;;;14.40;13.90;;;11.90;99.90;;;;;;5074164;28;20209;-65
2023/12/11 08:31:49;;;;;;;14.20;13.70;;;11.80;99.90;;;;;;5071430;28;20201;-66
2023/12/11 08:34:16;;;;;;;13.93;13.43;;;11.70;99.90;;;;;;5067939;28;20196;-66
2023/12/11 08:36:43;;;;;;;14.63;14.13;;;11.70;99.90;;;;;;5071893;28;20313;-66
2023/12/11 08:39:11;;;;;;;14.00;13.50;;;11.70;99.90;;;;;;5066963;28;20545;-67
2023/12/11 08:41:38;;;;;;;14.43;13.93;;;11.70;99.90;;;;;;5066427;28;20203;-68
2023/12/11 08:44:05;;;;;;;14.10;13.60;;;11.80;99.90;;;;;;5070253;28;20602;-65
2023/12/11 08:46:34;;;;;;;13.67;13.17;;;11.80;99.90;;;;;;5068814;28;20273;-67
2023/12/11 08:49:01;;;;;;;13.97;13.47;;;11.80;99.90;;;;;;5066805;28;20223;-66
2023/12/11 08:51:27;;;;;;;13.20;12.80;;;11.90;99.90;;;;;;5070333;28;20206;-67
2023/12/11 08:53:54;;;;;;;12.97;12.57;;;11.90;99.90;;;;;;5074217;28;20302;-64
2023/12/11 08:56:23;;;;;;;12.17;11.77;;;12.10;99.90;;;;;;5072620;28;20773;-66
2023/12/11 08:58:50;;;;;;;12.73;12.33;;;12.20;99.90;;;;;;5068120;28;20221;-65
2023/12/11 09:01:17;;;;;;;11.93;11.53;;;12.20;99.90;;;;;;5071371;28;20206;-66
2023/12/11 09:03:45;;;;;;;12.07;11.67;;;12.30;99.90;;;;;;5065664;28;20238;-67
2023/12/11 09:06:14;;;;;;;12.40;12.00;;;12.40;99.90;;;;;;5064344;28;20251;-66
2023/12/11 09:08:41;;;;;;;12.80;12.40;;;12.50;99.90;;;;;;5072741;28;20669;-66
2023/12/11 09:11:08;;;;;;;13.97;13.47;;;12.60;99.90;;;;;;5074203;28;20249;-67
2023/12/11 09:13:35;;;;;;;14.17;13.67;;;12.70;99.90;;;;;;5073713;28;20217;-66
2023/12/11 09:16:03;;;;;;;14.00;13.50;;;12.70;99.90;;;;;;5065682;28;20264;-65
2023/12/11 09:18:30;;;;;;;15.13;14.63;;;12.80;99.90;;;;;;5075936;28;20235;-67
2023/12/11 09:20:58;;;;;;;15.03;14.43;;;12.80;99.90;;;;;;5066784;28;20689;-67
2023/12/11 09:23:25;;;;;;;14.67;14.17;;;12.90;99.90;;;;;;5074270;28;20199;-65
2023/12/11 09:25:52;;;;;;;13.53;13.07;;;13.00;99.90;;;;;;5072493;28;20310;-65
2023/12/11 09:28:19;;;;;;;14.53;14.03;;;13.10;99.90;;;;;;5075900;28;20632;-67
2023/12/11 09:30:45;;;;;;;13.80;13.30;;;13.20;99.90;;;;;;5077634;28;20218;-66
2023/12/11 09:33:12;;;;;;;14.23;13.73;;;13.20;99.90;;;;;;5074945;28;20199;-65
2023/12/11 09:35:39;;;;;;;13.07;12.57;;;13.20;99.90;;;;;;5071784;28;20206;-67
2023/12/11 09:38:07;;;;;;;12.97;12.47;;;13.30;99.90;;;;;;5075740;28;20227;-65
2023/12/11 09:40:35;;;;;;;13.00;12.60;;;13.30;99.90;;;;;;5071020;28;20204;-66
2023/12/11 09:43:03;;;;;;;13.67;13.17;;;13.40;99.90;;;;;;5074768;28;20195;-65
2023/12/11 09:45:31;;;;;;;13.97;13.47;;;13.40;99.90;;;;;;5074563;28;20226;-65
2023/12/11 09:47:59;;;;;;;13.77;13.27;;;13.40;99.90;;;;;;5071861;28;20729;-66
2023/12/11 09:50:26;;;;;;;13.33;12.87;;;13.50;99.90;;;;;;5074407;28;20207;-66
2023/12/11 09:52:55;;;;;;;13.97;13.47;;;13.60;99.90;;;;;;5064205;28;20211;-65
2023/12/11 09:55:23;;;;;;;14.73;14.23;;;13.60;99.90;;;;;;5069761;28;20558;-66
2023/12/11 09:57:51;;;;;;;14.10;13.60;;;13.60;99.90;;;;;;5066450;28;20242;-65
2023/12/11 10:00:19;;;;;;;14.87;14.37;;;13.60;99.90;;;;;;5067330;28;20218;-65
2023/12/11 10:02:50;;;;;;;14.27;13.77;;;13.60;99.90;;;;;;5074625;28;20203;-66
2023/12/11 10:05:24;;;;;;;11.70;11.30;;;13.70;99.90;;;;;;5072534;28;20310;-65
2023/12/11 10:07:51;;;;;;;14.13;13.63;;;13.70;99.90;;;;;;5076182;28;20262;-66
2023/12/11 10:10:25;;;;;;;12.80;12.40;;;13.80;99.90;;;;;;5073811;28;20207;-67
2023/12/11 10:12:53;;;;;;;13.00;12.60;;;13.70;99.90;;;;;;5068367;28;20282;-66
2023/12/11 10:15:21;;;;;;;15.13;14.57;;;13.60;99.90;;;;;;5074701;28;20199;-65
2023/12/11 10:18:02;;;;;;;14.67;14.17;;;13.70;99.90;;;;;;5074226;28;20664;-66
2023/12/11 10:20:29;;;;;;;12.97;12.57;;;13.60;99.90;;;;;;5075915;28;20210;-66
2023/12/11 10:22:55;;;;;;;13.00;12.50;;;13.70;99.90;;;;;;5070316;28;20283;-67
2023/12/11 10:25:28;;;;;;;13.40;13.00;;;13.60;99.90;;;;;;5066716;28;20204;-67
2023/12/11 10:28:05;;;;;;;12.77;12.37;;;13.60;99.90;;;;;;5073113;28;20314;-66
2023/12/11 10:30:32;;;;;;;13.70;13.20;;;13.70;99.90;;;;;;5070249;28;20230;-65
2023/12/11 10:33:02;;;;;;;12.00;11.60;;;13.80;99.90;;;;;;5074261;28;20207;-67
2023/12/11 10:35:30;;;;;;;13.90;13.40;;;13.70;99.90;;;;;;5076705;28;20689;-67
2023/12/11 10:38:03;;;;;;;12.33;11.93;;;13.80;99.90;;;;;;5073062;28;20229;-65
2023/12/11 10:40:41;;;;;;;11.90;11.50;;;13.80;99.90;;;;;;5070271;28;20222;-66
2023/12/11 10:43:08;;;;;;;12.43;12.03;;;13.80;99.90;;;;;;5072700;28;20684;-65
2023/12/11 10:45:36;;;;;;;12.93;12.53;;;13.80;99.90;;;;;;5072067;28;20207;-66
2023/12/11 10:48:03;;;;;;;12.10;11.70;;;13.80;99.90;;;;;;5073879;28;20582;-67
2023/12/11 10:50:30;;;;;;;11.23;10.83;;;13.80;99.90;;;;;;5068065;28;20325;-67
2023/12/11 10:52:59;;;;;;;12.20;11.80;;;13.80;99.90;;;;;;5066716;28;20218;-67
2023/12/11 10:55:26;;;;;;;14.17;13.67;;;13.80;99.90;;;;;;5069061;28;20207;-67
2023/12/11 10:57:54;;;;;;;12.13;11.73;;;13.90;99.90;;;;;;5074849;28;20238;-65
2023/12/11 11:00:21;;;;;;;12.43;12.03;;;13.90;99.90;;;;;;5074690;28;20652;-65
2023/12/11 11:02:54;;;;;;;12.40;12.00;;;13.90;99.90;;;;;;5073575;28;20199;-66
2023/12/11 11:05:23;;;;;;;13.33;12.93;;;13.90;99.90;;;;;;5073456;28;20207;-66
2023/12/11 11:07:57;;;;;;;12.00;11.60;;;13.90;99.90;;;;;;5072701;28;20593;-66
2023/12/11 11:10:32;;;;;;;13.50;13.03;;;13.90;99.90;;;;;;5073047;28;20194;-68
2023/12/11 11:13:05;;;;;;;12.77;11.95;;;14.00;99.90;;;;;;5068970;28;20203;-66
2023/12/11 11:15:32;;;;;;;13.33;12.87;;;14.00;99.90;;;;;;5062772;28;20234;-66
2023/12/11 11:18:00;;;;;;;12.33;11.93;;;14.10;99.90;;;;;;5070658;28;20551;-66
2023/12/11 11:20:28;;;;;;;12.77;12.33;;;14.00;99.90;;;;;;5069775;28;20227;-66
2023/12/11 11:23:22;;;;;;;12.00;11.60;;;14.00;99.90;;;;;;5071086;28;20210;-67
2023/12/11 11:25:53;;;;;;;12.87;12.43;;;14.00;99.90;;;;;;5075687;28;20211;-67
2023/12/11 11:28:38;;;;;;;13.90;13.40;;;14.00;99.90;;;;;;5074727;28;20219;-65
2023/12/11 11:31:05;;;;;;;12.93;12.53;;;14.10;99.90;;;;;;5062754;28;20276;-68
2023/12/11 11:33:44;;;;;;;11.50;11.10;;;14.10;99.90;;;;;;5073108;28;20207;-66
2023/12/11 11:36:11;;;;;;;11.70;11.30;;;14.10;99.90;;;;;;5064941;28;20211;-65
2023/12/11 11:38:57;;;;;;;12.20;11.80;;;14.00;99.90;;;;;;5073180;28;20294;-65
2023/12/11 11:41:26;;;;;;;12.00;11.60;;;14.10;99.90;;;;;;5069668;28;20208;-66
2023/12/11 11:44:04;;;;;;;12.33;11.93;;;14.10;99.90;;;;;;5072516;28;20288;-64
2023/12/11 11:46:48;;;;;;;12.13;11.73;;;14.10;99.90;;;;;;5067682;28;20226;-66
2023/12/11 11:49:27;;;;;;;12.20;11.80;;;14.10;99.90;;;;;;5073527;28;20210;-65
2023/12/11 11:51:54;;;;;;;12.10;11.70;;;14.10;99.90;;;;;;5071179;28;20328;-65
2023/12/11 11:54:23;;;;;;;12.27;11.83;;;14.10;99.90;;;;;;5075727;28;20200;-65
2023/12/11 11:56:50;;;;;;;12.40;12.00;;;14.10;99.90;;;;;;5075006;28;20690;-67
2023/12/11 11:59:18;;;;;;;11.70;11.30;;;14.10;99.90;;;;;;5074825;28;20226;-65
2023/12/11 12:01:52;;;;;;;11.83;11.43;;;14.10;99.90;;;;;;5069349;28;20710;-66
2023/12/11 12:04:29;;;;;;;11.60;11.20;;;14.10;99.90;;;;;;5073368;28;20229;-65
2023/12/11 12:06:58;;;;;;;12.40;12.00;;;14.00;99.90;;;;;;5068942;28;20226;-66
2023/12/11 12:09:25;;;;;;;12.43;11.93;;;14.00;99.90;;;;;;5074867;28;20631;-66
2023/12/11 12:11:52;;;;;;;12.50;12.10;;;14.00;99.90;;;;;;5070155;28;20204;-65
2023/12/11 12:14:21;;;;;;;12.93;12.53;;;14.00;99.90;;;;;;5070387;28;20230;-66
2023/12/11 12:16:48;;;;;;;12.43;12.03;;;14.00;99.90;;;;;;5073200;28;20620;-67
2023/12/11 12:19:15;;;;;;;12.73;12.33;;;13.90;99.90;;;;;;5074354;28;20199;-66
2023/12/11 12:21:49;;;;;;;12.30;11.90;;;13.90;99.90;;;;;;5070212;28;20211;-65
2023/12/11 12:24:16;;;;;;;12.63;12.23;;;13.90;99.90;;;;;;5074393;28;20199;-66
2023/12/11 12:26:44;;;;;;;12.00;11.60;;;13.90;99.90;;;;;;5070628;28;20239;-66
2023/12/11 12:29:11;;;;;;;12.27;11.87;;;14.00;99.90;;;;;;5071704;28;20222;-66
2023/12/11 12:31:41;;;;;;;12.10;11.70;;;14.10;99.90;;;;;;5072746;28;20974;-67